BAW706 EGLL-LCLK
Flight info
| Callsign | BAW706 |
|---|---|
| Flight time | N/A |
| Altitude | 35000 |
| Route | DET1J DET L6 DVR UL9 KONAN DCT KOK DCT REMBA DCT SPI DCT ULNOK DCT VIBOM DCT NOMBO DCT RIDAR DCT GOMIG DCT GOTAR DCT BABIT DCT KOTUS DCT NISVA/N0444F370 N131 USALI DCT RODIP DCT BELGI UN131 KULAR UT39 TOMBI M855 DASNI M601 BONEK BONEK1R |
| Aircraft | A320/M-SDE3FGIKRWXY/S |
Departure
| Time | 2026-05-07 17:07 |
|---|---|
| Airport | London Heathrow Airport (EGLL) |
Arrival
| Time | N/A |
|---|---|
| Airport | Larnaca International Airport (LCLK) |
| Time | Latitude | Longitude | Altitude | Speed | Heading |
|---|---|---|---|---|---|
| 2026-05-07 16:42 | 51.46930 | -0.48787 | 86 ft | 0 kts | 360° |
| 2026-05-07 16:55 | 51.46916 | -0.48787 | 91 ft | 4 kts | 360° |
| 2026-05-07 16:55 | 51.46894 | -0.48786 | 88 ft | 4 kts | 1° |
| 2026-05-07 16:56 | 51.46877 | -0.48795 | 87 ft | 4 kts | 80° |
| 2026-05-07 16:56 | 51.46876 | -0.48790 | 87 ft | 4 kts | 90° |
| 2026-05-07 16:56 | 51.46876 | -0.48777 | 87 ft | 0 kts | 90° |
| 2026-05-07 16:59 | 51.46877 | -0.48774 | 87 ft | 1 kts | 83° |
| 2026-05-07 16:59 | 51.46878 | -0.48765 | 86 ft | 1 kts | 76° |
| 2026-05-07 16:59 | 51.46879 | -0.48758 | 87 ft | 1 kts | 77° |
| 2026-05-07 16:59 | 51.46879 | -0.48761 | 87 ft | 0 kts | 73° |
| 2026-05-07 17:00 | 51.46880 | -0.48759 | 86 ft | 0 kts | 71° |
| 2026-05-07 17:00 | 51.46882 | -0.48754 | 86 ft | 0 kts | 63° |
| 2026-05-07 17:04 | 51.46882 | -0.48753 | 86 ft | 0 kts | 64° |
| 2026-05-07 17:04 | 51.46875 | -0.48741 | 90 ft | 1 kts | 159° |
| 2026-05-07 17:05 | 51.46832 | -0.48747 | 86 ft | 11 kts | 184° |
| 2026-05-07 17:05 | 51.46747 | -0.48750 | 86 ft | 13 kts | 179° |
| 2026-05-07 17:05 | 51.46652 | -0.48749 | 86 ft | 13 kts | 180° |
| 2026-05-07 17:05 | 51.46596 | -0.48770 | 89 ft | 1 kts | 198° |
| 2026-05-07 17:06 | 51.46591 | -0.48773 | 88 ft | 1 kts | 198° |
| 2026-05-07 17:06 | 51.46541 | -0.48787 | 86 ft | 13 kts | 179° |
| 2026-05-07 17:06 | 51.46480 | -0.48684 | 88 ft | 18 kts | 97° |
| 2026-05-07 17:06 | 51.46479 | -0.48256 | 89 ft | 70 kts | 90° |
| 2026-05-07 17:07 | 51.46483 | -0.47154 | 87 ft | 125 kts | 90° |
| 2026-05-07 17:07 | 51.46489 | -0.45517 | 88 ft | 168 kts | 89° |
| 2026-05-07 17:07 | 51.46495 | -0.43589 | 573 ft | 170 kts | 90° |
| 2026-05-07 17:07 | 51.46490 | -0.41709 | 1252 ft | 169 kts | 98° |
| 2026-05-07 17:08 | 51.45941 | -0.39988 | 1565 ft | 184 kts | 135° |
| 2026-05-07 17:08 | 51.45016 | -0.38390 | 1796 ft | 208 kts | 130° |
| 2026-05-07 17:08 | 51.44136 | -0.36373 | 2046 ft | 233 kts | 122° |
| 2026-05-07 17:08 | 51.43451 | -0.33892 | 2430 ft | 255 kts | 102° |
| 2026-05-07 17:09 | 51.43136 | -0.31062 | 3169 ft | 260 kts | 102° |
| 2026-05-07 17:09 | 51.42763 | -0.28210 | 4002 ft | 262 kts | 103° |
| 2026-05-07 17:09 | 51.42368 | -0.25341 | 4836 ft | 265 kts | 102° |
| 2026-05-07 17:09 | 51.41968 | -0.22449 | 5622 ft | 267 kts | 102° |
| 2026-05-07 17:10 | 51.41567 | -0.19535 | 6397 ft | 270 kts | 102° |
| 2026-05-07 17:10 | 51.41161 | -0.16585 | 7134 ft | 273 kts | 103° |
| 2026-05-07 17:10 | 51.40755 | -0.13630 | 7836 ft | 277 kts | 103° |
| 2026-05-07 17:10 | 51.40339 | -0.10595 | 8542 ft | 281 kts | 103° |
| 2026-05-07 17:11 | 51.39915 | -0.07512 | 9244 ft | 285 kts | 104° |
| 2026-05-07 17:11 | 51.39483 | -0.04392 | 9938 ft | 289 kts | 104° |
| 2026-05-07 17:11 | 51.39034 | -0.01183 | 10302 ft | 305 kts | 104° |
| 2026-05-07 17:11 | 51.38553 | 0.02255 | 10454 ft | 327 kts | 104° |
| 2026-05-07 17:12 | 51.38038 | 0.05924 | 10645 ft | 345 kts | 104° |
| 2026-05-07 17:12 | 51.37508 | 0.09717 | 11140 ft | 351 kts | 104° |
| 2026-05-07 17:12 | 51.36972 | 0.13558 | 11735 ft | 355 kts | 104° |
| 2026-05-07 17:12 | 51.36429 | 0.17421 | 12329 ft | 358 kts | 104° |
| 2026-05-07 17:13 | 51.35882 | 0.21320 | 12931 ft | 361 kts | 104° |
| 2026-05-07 17:13 | 51.35332 | 0.25246 | 13546 ft | 363 kts | 104° |
| 2026-05-07 17:13 | 51.34776 | 0.29205 | 14112 ft | 366 kts | 104° |
| 2026-05-07 17:13 | 51.34211 | 0.33196 | 14628 ft | 370 kts | 104° |
| 2026-05-07 17:14 | 51.33644 | 0.37175 | 15118 ft | 373 kts | 104° |
| 2026-05-07 17:14 | 51.33050 | 0.41297 | 15587 ft | 377 kts | 104° |
| 2026-05-07 17:14 | 51.32464 | 0.45352 | 15868 ft | 381 kts | 104° |
| 2026-05-07 17:14 | 51.31867 | 0.49497 | 16351 ft | 385 kts | 104° |
| 2026-05-07 17:15 | 51.31258 | 0.53739 | 16883 ft | 388 kts | 104° |
| 2026-05-07 17:15 | 51.30658 | 0.57905 | 17401 ft | 391 kts | 104° |
| 2026-05-07 17:15 | 51.30016 | 0.62155 | 17914 ft | 395 kts | 105° |
| 2026-05-07 17:15 | 51.29286 | 0.66405 | 18414 ft | 398 kts | 107° |
| 2026-05-07 17:16 | 51.28497 | 0.70662 | 18898 ft | 401 kts | 108° |
| 2026-05-07 17:16 | 51.27679 | 0.74940 | 19383 ft | 404 kts | 108° |
| 2026-05-07 17:16 | 51.26854 | 0.79248 | 19902 ft | 407 kts | 108° |
| 2026-05-07 17:16 | 51.26034 | 0.83595 | 20403 ft | 410 kts | 108° |
| 2026-05-07 17:17 | 51.25215 | 0.87980 | 20883 ft | 413 kts | 108° |
| 2026-05-07 17:17 | 51.24397 | 0.92393 | 21348 ft | 416 kts | 108° |
| 2026-05-07 17:17 | 51.23576 | 0.96840 | 21803 ft | 419 kts | 108° |
| 2026-05-07 17:17 | 51.22750 | 1.01324 | 22220 ft | 422 kts | 108° |
| 2026-05-07 17:18 | 51.21915 | 1.05825 | 22616 ft | 425 kts | 108° |
| 2026-05-07 17:18 | 51.21072 | 1.10354 | 23016 ft | 428 kts | 108° |
| 2026-05-07 17:18 | 51.20221 | 1.14914 | 23412 ft | 430 kts | 108° |
| 2026-05-07 17:18 | 51.19362 | 1.19500 | 23774 ft | 433 kts | 108° |
| 2026-05-07 17:19 | 51.18494 | 1.24110 | 24093 ft | 435 kts | 108° |
| 2026-05-07 17:19 | 51.17618 | 1.28743 | 24412 ft | 438 kts | 108° |
| 2026-05-07 17:19 | 51.16745 | 1.33403 | 24723 ft | 440 kts | 106° |
| 2026-05-07 17:19 | 51.16158 | 1.38213 | 25024 ft | 443 kts | 97° |
| 2026-05-07 17:20 | 51.15907 | 1.43121 | 25334 ft | 446 kts | 95° |
| 2026-05-07 17:20 | 51.15675 | 1.48060 | 25621 ft | 448 kts | 95° |